Time;durP1;ratioP1;P1;durP2;ratioP2;P2;SDS_P1;SDS_P2;PMS_P1;PMS_P2;Temp;Humidity;BMP_temperature;BMP_pressure;BME280_temperature;BME280_humidity;BME280_pressure;Samples;Min_cycle;Max_cycle;Signal;HPM_P1;HPM_P2
2023/09/23 00:00:37;;;;;;;2.30;2.00;;;;;;;23.00;91.93;99375.16;5113030;28;20602;-69
2023/09/23 00:03:05;;;;;;;4.83;2.00;;;;;;;22.85;92.66;99371.97;5113065;28;20241;-69
2023/09/23 00:05:35;;;;;;;5.63;2.63;;;;;;;22.81;92.45;99375.78;5111695;28;20195;-69
2023/09/23 00:08:02;;;;;;;2.17;2.03;;;;;;;22.84;92.71;99390.44;5113565;28;20206;-69
2023/09/23 00:10:28;;;;;;;1.93;1.83;;;;;;;22.76;93.32;99391.03;5112397;28;20203;-69
2023/09/23 00:12:56;;;;;;;2.73;2.20;;;;;;;22.74;93.74;99394.72;5112980;28;20814;-69
2023/09/23 00:15:23;;;;;;;4.93;2.30;;;;;;;22.74;93.92;99398.19;5113181;28;20237;-69
2023/09/23 00:17:53;;;;;;;3.27;2.43;;;;;;;22.73;93.53;99393.88;5112806;28;20697;-69
2023/09/23 00:20:21;;;;;;;2.13;2.03;;;;;;;22.72;93.73;99391.38;5112645;28;20677;-69
2023/09/23 00:22:53;;;;;;;2.87;2.30;;;;;;;22.72;93.73;99387.00;5112865;28;20229;-69
2023/09/23 00:25:20;;;;;;;6.43;2.20;;;;;;;22.70;94.15;99388.91;5113407;28;20195;-69
2023/09/23 00:27:47;;;;;;;2.30;2.20;;;;;;;22.67;93.99;99388.31;5112308;28;20198;-69
2023/09/23 00:30:15;;;;;;;2.03;1.93;;;;;;;22.62;94.70;99391.25;5112731;28;20207;-69
2023/09/23 00:32:43;;;;;;;2.67;2.47;;;;;;;22.63;94.90;99387.69;5112973;28;20195;-70
2023/09/23 00:35:11;;;;;;;1.97;1.87;;;;;;;22.60;95.01;99395.78;5113313;28;20224;-69
2023/09/23 00:37:40;;;;;;;4.60;2.63;;;;;;;22.59;95.42;99391.50;5113362;28;20709;-69
2023/09/23 00:40:13;;;;;;;6.00;3.00;;;;;;;22.57;94.80;99393.41;5112657;28;20677;-69
2023/09/23 00:42:40;;;;;;;1.87;1.77;;;;;;;22.56;95.17;99391.75;5112995;28;20199;-69
2023/09/23 00:45:14;;;;;;;2.87;2.33;;;;;;;22.57;95.52;99388.19;5112293;28;20277;-69
2023/09/23 00:47:43;;;;;;;6.77;2.07;;;;;;;22.56;94.87;99391.75;5110484;28;22075;-69
2023/09/23 00:50:19;;;;;;;3.03;2.57;;;;;;;22.54;95.09;99393.66;5112707;28;20206;-69
2023/09/23 00:52:49;;;;;;;4.03;2.33;;;;;;;22.44;94.58;99383.13;5112124;28;20206;-69
2023/09/23 00:55:17;;;;;;;2.90;2.07;;;;;;;22.52;94.89;99389.53;5112082;28;20701;-69
2023/09/23 00:57:47;;;;;;;3.60;2.00;;;;;;;22.39;94.68;99368.75;5112450;28;20198;-69
2023/09/23 01:00:17;;;;;;;4.13;2.23;;;;;;;22.46;94.92;99386.44;5112469;28;20223;-69
2023/09/23 01:02:46;;;;;;;5.07;2.23;;;;;;;22.45;95.20;99383.94;5112085;28;21623;-69
2023/09/23 01:05:13;;;;;;;2.47;2.37;;;;;;;22.45;95.17;99386.56;5112422;28;20194;-69
2023/09/23 01:07:39;;;;;;;2.17;2.07;;;;;;;22.43;95.41;99391.06;5111242;28;20658;-69
2023/09/23 01:10:07;;;;;;;2.27;2.07;;;;;;;22.39;95.00;99389.66;5112203;28;20198;-69
2023/09/23 01:12:34;;;;;;;3.53;2.53;;;;;;;22.36;94.79;99389.88;5112082;28;20202;-69
2023/09/23 01:15:17;;;;;;;2.20;2.10;;;;;;;22.34;94.97;99386.56;5112390;28;20770;-69
2023/09/23 01:17:48;;;;;;;2.33;2.20;;;;;;;22.27;95.71;99385.38;5111583;28;20194;-69
2023/09/23 01:20:16;;;;;;;2.47;2.27;;;;;;;22.23;95.35;99390.00;5111989;28;20199;-69
2023/09/23 01:22:44;;;;;;;2.70;2.23;;;;;;;22.19;95.40;99393.84;5110922;28;20204;-69
2023/09/23 01:25:11;;;;;;;5.60;2.93;;;;;;;22.14;95.16;99390.72;5111830;28;20594;-69
2023/09/23 01:27:37;;;;;;;2.03;1.83;;;;;;;22.07;96.16;99394.75;5110647;28;20631;-69
2023/09/23 01:30:05;;;;;;;1.83;1.73;;;;;;;22.01;96.34;99399.63;5110849;28;20238;-69
2023/09/23 01:32:46;;;;;;;4.30;2.07;;;;;;;21.96;96.21;99403.44;5111071;28;20262;-69
2023/09/23 01:35:15;;;;;;;1.90;1.80;;;;;;;21.94;96.19;99400.09;5110934;28;20305;-69
2023/09/23 01:37:42;;;;;;;2.17;2.07;;;;;;;21.94;95.99;99400.09;5111012;28;20207;-69
2023/09/23 01:40:11;;;;;;;5.03;2.00;;;;;;;21.93;95.84;99398.47;5111600;28;20234;-69
2023/09/23 01:42:38;;;;;;;1.87;1.77;;;;;;;21.90;95.95;99403.91;5109485;28;20674;-70
2023/09/23 01:45:06;;;;;;;2.27;2.17;;;;;;;21.90;95.30;99403.91;5110779;28;20788;-69
2023/09/23 01:47:33;;;;;;;2.03;1.93;;;;;;;21.87;95.13;99400.66;5111326;28;20604;-69
2023/09/23 01:50:00;;;;;;;2.70;2.50;;;;;;;21.83;95.31;99401.84;5111538;28;20680;-69
2023/09/23 01:52:29;;;;;;;3.40;2.10;;;;;;;21.79;95.39;99400.41;5108934;28;20210;-69
2023/09/23 01:54:56;;;;;;;2.27;2.17;;;;;;;21.74;95.48;99406.00;5111068;28;20689;-70
2023/09/23 01:57:24;;;;;;;2.23;2.07;;;;;;;21.70;95.36;99407.16;5108175;28;20259;-70
2023/09/23 01:59:51;;;;;;;6.03;2.70;;;;;;;21.68;95.51;99403.81;5111027;28;20539;-69
2023/09/23 02:02:17;;;;;;;3.60;1.90;;;;;;;21.66;95.50;99405.72;5110146;28;20250;-69
2023/09/23 02:04:47;;;;;;;5.07;1.80;;;;;;;21.42;95.42;99373.69;5109996;28;20195;-69
2023/09/23 02:07:14;;;;;;;2.10;1.80;;;;;;;21.58;95.70;99402.88;5110737;28;20194;-69
2023/09/23 02:09:41;;;;;;;2.30;2.20;;;;;;;21.57;95.85;99408.19;5111295;28;20201;-69
2023/09/23 02:12:07;;;;;;;1.80;1.70;;;;;;;21.58;95.28;99397.66;5110891;28;20675;-69
2023/09/23 02:14:36;;;;;;;2.10;2.00;;;;;;;21.56;95.47;99407.38;5109821;28;20594;-69
2023/09/23 02:17:02;;;;;;;3.03;2.03;;;;;;;21.54;95.75;99406.66;5108602;28;20199;-69
2023/09/23 02:19:29;;;;;;;1.87;1.77;;;;;;;21.51;96.17;99408.66;5110927;28;20202;-69
2023/09/23 02:21:56;;;;;;;1.57;1.53;;;;;;;21.49;96.28;99411.38;5108191;28;20205;-69
2023/09/23 02:24:23;;;;;;;3.90;2.00;;;;;;;21.48;96.18;99419.31;5108280;28;20218;-69
2023/09/23 02:26:50;;;;;;;1.93;1.73;;;;;;;21.46;96.45;99419.44;5111218;28;20205;-69
2023/09/23 02:29:17;;;;;;;5.37;2.33;;;;;;;21.45;96.37;99417.78;5110298;28;20203;-69
2023/09/23 02:31:47;;;;;;;2.10;1.90;;;;;;;21.40;96.67;99414.66;5109971;28;20213;-69
2023/09/23 02:34:16;;;;;;;4.40;2.37;;;;;;;21.35;96.66;99406.38;5107687;28;20632;-69
2023/09/23 02:36:45;;;;;;;3.07;1.97;;;;;;;21.32;97.58;99406.59;5110716;28;20278;-69
2023/09/23 02:39:15;;;;;;;6.40;1.90;;;;;;;21.31;97.89;99408.38;5109946;28;20278;-69
2023/09/23 02:41:45;;;;;;;1.87;1.77;;;;;;;21.22;97.54;99403.84;5110936;28;20297;-69
2023/09/23 02:44:12;;;;;;;2.30;2.17;;;;;;;21.28;97.67;99415.59;5110041;28;20677;-69
2023/09/23 02:46:40;;;;;;;1.80;1.73;;;;;;;21.20;98.34;99415.31;5110708;28;20201;-69
2023/09/23 02:49:09;;;;;;;4.20;1.93;;;;;;;21.17;98.66;99407.72;5108901;28;20202;-69
2023/09/23 02:51:36;;;;;;;2.07;1.87;;;;;;;21.13;98.63;99406.28;5108165;28;20195;-69
2023/09/23 02:54:04;;;;;;;2.27;2.00;;;;;;;21.10;98.86;99411.72;5109958;28;20289;-69
2023/09/23 02:56:31;;;;;;;3.83;2.17;;;;;;;21.07;98.58;99412.72;5105763;28;20305;-69
2023/09/23 02:58:59;;;;;;;2.10;2.00;;;;;;;21.04;98.67;99406.91;5110192;28;20202;-69
2023/09/23 03:01:27;;;;;;;1.67;1.60;;;;;;;21.01;98.97;99413.19;5109591;28;20638;-69
2023/09/23 03:03:55;;;;;;;1.80;1.70;;;;;;;20.96;99.16;99410.09;5110585;28;20662;-69
2023/09/23 03:06:23;;;;;;;4.43;1.80;;;;;;;20.93;99.25;99411.16;5110105;28;20672;-69
2023/09/23 03:08:54;;;;;;;3.53;1.90;;;;;;;20.90;99.41;99418.34;5109910;28;20732;-69
2023/09/23 03:11:21;;;;;;;4.00;2.20;;;;;;;20.84;100.00;99422.22;5108830;28;20679;-69
2023/09/23 03:13:49;;;;;;;7.43;2.57;;;;;;;20.83;100.00;99414.53;5110055;28;20210;-69
2023/09/23 03:16:28;;;;;;;4.27;2.23;;;;;;;20.79;100.00;99416.50;5108162;28;20267;-69
2023/09/23 03:19:10;;;;;;;2.70;1.97;;;;;;;20.78;100.00;99420.06;5110310;28;20697;-69
2023/09/23 03:21:39;;;;;;;2.80;2.53;;;;;;;20.77;100.00;99417.56;5108385;28;20209;-69
2023/09/23 03:24:06;;;;;;;5.00;2.03;;;;;;;20.73;100.00;99422.16;5109129;28;20632;-70
2023/09/23 03:26:33;;;;;;;1.80;1.70;;;;;;;20.70;100.00;99430.19;5109587;28;20198;-69
2023/09/23 03:29:00;;;;;;;2.27;2.10;;;;;;;20.71;100.00;99425.81;5106792;28;20198;-69
2023/09/23 03:31:27;;;;;;;7.10;1.90;;;;;;;20.69;100.00;99431.13;5108785;28;20618;-69
2023/09/23 03:33:55;;;;;;;5.97;1.97;;;;;;;20.69;100.00;99433.75;5112817;28;20217;-69
2023/09/23 03:36:24;;;;;;;2.07;1.97;;;;;;;20.69;100.00;99438.94;5113884;28;20348;-69
2023/09/23 03:38:53;;;;;;;2.03;1.93;;;;;;;20.66;100.00;99439.16;5114254;28;20216;-69
2023/09/23 03:41:19;;;;;;;1.80;1.70;;;;;;;20.64;100.00;99446.28;5114043;28;20641;-69
2023/09/23 03:43:46;;;;;;;1.73;1.63;;;;;;;20.65;100.00;99447.06;5114271;28;20672;-69
2023/09/23 03:46:14;;;;;;;2.23;2.00;;;;;;;20.62;100.00;99457.72;5110761;28;20194;-69
2023/09/23 03:48:41;;;;;;;2.23;2.07;;;;;;;20.59;100.00;99453.56;5114181;28;20210;-69
2023/09/23 03:51:09;;;;;;;3.20;1.83;;;;;;;20.58;100.00;99459.69;5113743;28;20205;-69
2023/09/23 03:53:36;;;;;;;1.83;1.73;;;;;;;20.55;100.00;99459.13;5113521;28;20200;-69
2023/09/23 03:56:05;;;;;;;2.83;2.63;;;;;;;20.52;100.00;99452.31;5113705;28;20224;-69
2023/09/23 03:58:32;;;;;;;2.43;2.33;;;;;;;20.52;100.00;99452.31;5113504;28;20201;-69
2023/09/23 04:01:05;;;;;;;4.30;2.43;;;;;;;20.39;100.00;99433.28;5113383;28;20708;-69
2023/09/23 04:03:34;;;;;;;2.17;1.80;;;;;;;20.50;100.00;99445.56;5113564;28;20201;-69
2023/09/23 04:06:01;;;;;;;2.47;2.27;;;;;;;20.41;100.00;99440.06;5111092;28;20679;-69
2023/09/23 04:08:29;;;;;;;2.00;1.97;;;;;;;20.46;100.00;99463.16;5112992;28;20207;-69
2023/09/23 04:10:56;;;;;;;2.10;2.00;;;;;;;20.42;100.00;99462.53;5112401;28;20714;-69
2023/09/23 04:13:25;;;;;;;4.27;1.90;;;;;;;20.44;100.00;99465.06;5113594;28;20196;-69
2023/09/23 04:15:53;;;;;;;2.83;2.63;;;;;;;20.44;100.00;99462.44;5110897;28;20215;-69
2023/09/23 04:18:20;;;;;;;2.17;1.90;;;;;;;20.42;100.00;99459.94;5112456;28;20577;-69
2023/09/23 04:20:50;;;;;;;2.00;1.90;;;;;;;20.43;100.00;99468.59;5112665;28;20205;-69
2023/09/23 04:23:17;;;;;;;2.53;2.37;;;;;;;20.44;100.00;99465.06;5113457;28;20200;-69
2023/09/23 04:25:44;;;;;;;3.07;1.83;;;;;;;20.43;100.00;99463.38;5111851;28;20211;-69
2023/09/23 04:28:11;;;;;;;3.43;2.30;;;;;;;20.41;100.00;99465.28;5112616;28;20238;-69
2023/09/23 04:30:39;;;;;;;2.87;2.13;;;;;;;20.43;100.00;99471.19;5113458;28;20203;-69
2023/09/23 04:33:06;;;;;;;10.23;2.60;;;;;;;20.40;100.00;99476.63;5112680;28;20209;-69
2023/09/23 04:35:34;;;;;;;3.67;2.43;;;;;;;20.31;100.00;99462.47;5112360;27;20269;-69
2023/09/23 04:38:02;;;;;;;6.77;2.37;;;;;;;20.38;100.00;99471.53;5111947;28;20207;-69
2023/09/23 04:40:29;;;;;;;4.60;2.60;;;;;;;20.38;100.00;99475.91;5112899;28;20231;-69
2023/09/23 04:42:56;;;;;;;2.47;2.37;;;;;;;20.39;100.00;99472.34;5113030;28;20274;-69
2023/09/23 04:45:24;;;;;;;2.20;2.10;;;;;;;20.39;100.00;99475.78;5112677;28;20191;-69
2023/09/23 04:47:52;;;;;;;2.20;1.90;;;;;;;20.42;100.00;99487.75;5111978;28;20669;-69
2023/09/23 04:50:23;;;;;;;3.67;2.37;;;;;;;20.43;100.00;99479.84;5112122;28;20271;-69
2023/09/23 04:52:50;;;;;;;2.93;2.13;;;;;;;20.43;100.00;99479.00;5111969;28;20206;-69
2023/09/23 04:55:17;;;;;;;2.13;2.00;;;;;;;20.48;100.00;99492.56;5112198;28;20202;-69
2023/09/23 04:57:44;;;;;;;1.97;1.87;;;;;;;20.51;100.00;99487.13;5111639;28;20240;-69
2023/09/23 05:00:15;;;;;;;5.73;2.60;;;;;;;20.54;100.00;99492.13;5111883;28;20236;-69
2023/09/23 05:02:42;;;;;;;4.47;1.90;;;;;;;20.59;100.00;99495.25;5112862;28;20206;-69
2023/09/23 05:05:11;;;;;;;2.27;2.17;;;;;;;20.60;100.00;99496.91;5111013;28;20205;-69
2023/09/23 05:07:39;;;;;;;2.90;2.40;;;;;;;20.62;100.00;99494.19;5108994;28;20713;-69
2023/09/23 05:10:07;;;;;;;8.50;2.30;;;;;;;20.59;100.00;99494.41;5109430;28;20624;-69
2023/09/23 05:12:34;;;;;;;2.27;2.10;;;;;;;20.64;100.00;99495.75;5112005;28;20257;-69
2023/09/23 05:15:01;;;;;;;4.47;2.57;;;;;;;20.65;100.00;99489.59;5111333;28;20586;-69
2023/09/23 05:17:28;;;;;;;1.70;1.60;;;;;;;20.79;100.00;99496.44;5111529;28;20219;-69
2023/09/23 05:19:55;;;;;;;3.60;1.73;;;;;;;20.85;99.67;99504.66;5111961;28;20229;-69
2023/09/23 05:22:23;;;;;;;1.43;1.43;;;;;;;20.94;99.50;99511.00;5105936;28;20653;-69
2023/09/23 05:24:56;;;;;;;2.00;1.90;;;;;;;21.03;99.37;99510.38;5108521;28;20206;-69
2023/09/23 05:27:24;;;;;;;1.60;1.50;;;;;;;21.16;98.58;99510.34;5109247;28;20574;-69
2023/09/23 05:29:53;;;;;;;4.47;2.20;;;;;;;21.23;98.40;99507.16;5107447;28;20203;-69
2023/09/23 05:32:20;;;;;;;6.17;2.20;;;;;;;21.40;97.17;99516.38;5110653;28;20262;-69
2023/09/23 05:34:51;;;;;;;4.60;1.97;;;;;;;21.47;96.29;99509.78;5110861;28;20218;-69
2023/09/23 05:37:17;;;;;;;2.37;2.27;;;;;;;21.66;95.19;99514.47;5106446;28;20714;-69
2023/09/23 05:39:46;;;;;;;3.70;1.57;;;;;;;21.80;95.02;99512.53;5109527;28;20582;-69
2023/09/23 05:42:15;;;;;;;5.13;1.80;;;;;;;21.93;94.29;99517.69;5111006;28;20198;-69
2023/09/23 05:44:43;;;;;;;1.40;1.30;;;;;;;22.02;93.65;99505.72;5109834;28;20757;-69
2023/09/23 05:47:10;;;;;;;2.77;1.90;;;;;;;22.24;92.72;99526.66;5110792;28;20685;-69
2023/09/23 05:49:38;;;;;;;2.53;2.33;;;;;;;22.38;91.76;99526.44;5109364;28;20659;-69
2023/09/23 05:52:05;;;;;;;1.73;1.33;;;;;;;22.49;91.74;99521.19;5110013;28;20202;-69
2023/09/23 05:54:33;;;;;;;1.97;1.87;;;;;;;22.65;91.39;99520.88;5109482;28;20206;-69
2023/09/23 05:57:01;;;;;;;1.80;1.70;;;;;;;22.81;90.79;99521.38;5108628;28;20682;-69
2023/09/23 05:59:28;;;;;;;1.60;1.60;;;;;;;22.97;88.78;99525.25;5107791;28;20222;-70
2023/09/23 06:01:54;;;;;;;1.67;1.57;;;;;;;23.11;88.32;99518.09;5108270;28;20650;-70
2023/09/23 06:04:21;;;;;;;3.43;1.80;;;;;;;23.28;87.30;99521.03;5109835;28;20203;-69
2023/09/23 06:06:48;;;;;;;1.93;1.70;;;;;;;23.38;86.73;99523.75;5110496;27;20200;-69
2023/09/23 06:09:15;;;;;;;2.93;1.67;;;;;;;23.51;86.58;99522.66;5109252;28;20198;-69
2023/09/23 06:11:43;;;;;;;2.30;1.70;;;;;;;23.66;85.01;99530.19;5110999;27;20206;-71
2023/09/23 06:14:11;;;;;;;2.60;1.93;;;;;;;23.80;83.63;99533.34;5110455;28;20205;-70
2023/09/23 06:16:38;;;;;;;2.37;1.70;;;;;;;23.94;82.56;99529.59;5108318;28;20300;-70
2023/09/23 06:19:05;;;;;;;1.70;1.60;;;;;;;24.07;81.90;99539.88;5108590;28;20252;-70
2023/09/23 06:21:32;;;;;;;3.23;1.40;;;;;;;24.19;80.93;99541.50;5107549;28;20268;-70
2023/09/23 06:23:59;;;;;;;5.47;1.70;;;;;;;24.26;81.88;99534.78;5108334;28;20205;-69
2023/09/23 06:26:27;;;;;;;1.40;1.30;;;;;;;24.39;80.97;99522.31;5104312;27;20202;-66
2023/09/23 06:28:54;;;;;;;1.80;1.70;;;;;;;24.57;79.92;99539.09;5111883;27;20257;-66
2023/09/23 06:31:22;;;;;;;1.53;1.43;;;;;;;24.67;81.11;99529.47;5107894;28;20684;-66
2023/09/23 06:33:49;;;;;;;1.63;1.53;;;;;;;24.80;78.25;99534.47;5109485;28;20202;-66
2023/09/23 06:36:16;;;;;;;1.40;1.30;;;;;;;24.91;77.79;99535.22;5108482;28;20582;-66
2023/09/23 06:38:42;;;;;;;1.27;1.27;;;;;;;25.01;78.01;99538.72;5109600;28;20707;-66
2023/09/23 06:41:09;;;;;;;1.33;1.27;;;;;;;25.16;77.51;99536.56;5106269;28;20202;-66
2023/09/23 06:43:36;;;;;;;2.67;1.30;;;;;;;25.19;77.85;99530.19;5107440;27;20275;-66
2023/09/23 06:46:03;;;;;;;1.17;1.17;;;;;;;25.23;75.14;99523.72;5108257;28;20203;-66
2023/09/23 06:48:31;;;;;;;1.23;1.23;;;;;;;25.45;75.65;99537.44;5108676;28;20222;-66
2023/09/23 06:51:00;;;;;;;1.07;1.07;;;;;;;25.56;75.28;99542.56;5109282;28;20203;-66
2023/09/23 06:53:27;;;;;;;1.60;1.43;;;;;;;25.67;75.51;99528.47;5107008;28;20234;-66
2023/09/23 06:55:54;;;;;;;2.03;1.17;;;;;;;25.78;73.20;99536.22;5108270;28;20264;-66
2023/09/23 06:58:21;;;;;;;1.40;1.30;;;;;;;25.91;72.17;99539.38;5109165;28;20222;-66
2023/09/23 07:00:48;;;;;;;4.73;1.10;;;;;;;26.07;70.56;99544.06;5108904;28;20241;-66
2023/09/23 07:03:15;;;;;;;1.27;1.27;;;;;;;26.21;71.48;99555.94;5108438;28;20209;-66
2023/09/23 07:05:44;;;;;;;1.33;1.33;;;;;;;26.43;70.75;99560.91;5108097;28;20678;-66
2023/09/23 07:08:11;;;;;;;1.30;1.30;;;;;;;26.61;69.06;99567.91;5111952;28;20202;-66
2023/09/23 07:10:39;;;;;;;4.90;1.13;;;;;;;26.69;67.94;99537.41;5113115;28;20190;-66
2023/09/23 07:13:06;;;;;;;1.00;1.00;;;;;;;26.93;67.18;99554.34;5114340;28;20560;-66
2023/09/23 07:15:36;;;;;;;1.17;1.07;;;;;;;27.17;66.38;99556.44;5113731;28;20206;-66
2023/09/23 07:18:03;;;;;;;2.80;1.33;;;;;;;27.29;64.98;99562.31;5111181;28;20264;-66
2023/09/23 07:20:30;;;;;;;1.97;1.83;;;;;;;27.28;66.30;99558.03;5112666;28;20198;-65
2023/09/23 07:22:59;;;;;;;1.23;1.20;;;;;;;27.44;65.82;99558.22;5113946;28;20203;-66
2023/09/23 07:25:26;;;;;;;1.53;1.43;;;;;;;27.56;64.68;99562.31;5113879;28;20199;-66
2023/09/23 07:27:53;;;;;;;1.50;1.40;;;;;;;27.76;63.53;99563.81;5111986;28;20205;-66
2023/09/23 07:30:20;;;;;;;1.40;1.40;;;;;;;27.90;63.96;99560.63;5113493;28;20221;-66
2023/09/23 07:32:47;;;;;;;3.00;0.90;;;;;;;28.02;62.48;99564.69;5111244;28;20210;-66
2023/09/23 07:35:14;;;;;;;0.83;0.83;;;;;;;27.96;61.76;99564.47;5112722;28;20215;-66
2023/09/23 07:37:41;;;;;;;1.90;1.07;;;;;;;28.15;62.50;99569.59;5113684;28;20222;-66
2023/09/23 07:40:11;;;;;;;1.30;1.20;;;;;;;28.42;62.31;99565.97;5110927;28;20199;-66
2023/09/23 07:42:38;;;;;;;1.43;1.27;;;;;;;28.60;60.52;99558.81;5109979;28;20678;-66
2023/09/23 07:45:05;;;;;;;1.23;1.20;;;;;;;28.79;60.90;99550.69;5112066;28;20700;-66
2023/09/23 07:47:32;;;;;;;1.20;1.10;;;;;;;28.90;60.33;99553.06;5113304;28;20191;-66
2023/09/23 07:49:59;;;;;;;1.80;1.70;;;;;;;29.00;59.42;99560.84;5113491;28;20281;-66
2023/09/23 07:52:26;;;;;;;1.70;1.20;;;;;;;29.12;59.02;99560.41;5113675;28;20248;-66
2023/09/23 07:54:53;;;;;;;2.13;1.20;;;;;;;29.26;58.92;99553.72;5113278;28;20848;-66
2023/09/23 07:57:22;;;;;;;2.58;0.90;;;;;;;29.34;57.92;99553.72;5109664;28;20225;-66
2023/09/23 07:59:48;;;;;;;0.90;0.90;;;;;;;29.25;58.99;99548.56;5113046;28;20259;-66
2023/09/23 08:02:15;;;;;;;0.93;0.93;;;;;;;29.35;60.92;99549.25;5111958;28;20710;-66
2023/09/23 08:04:42;;;;;;;1.38;1.27;;;;;;;29.52;58.26;99543.84;5112525;28;20271;-66
2023/09/23 08:07:09;;;;;;;1.92;1.00;;;;;;;29.66;57.85;99535.25;5111350;28;20705;-65
2023/09/23 08:09:36;;;;;;;1.15;1.15;;;;;;;29.73;58.03;99542.56;5111722;28;20662;-66
2023/09/23 08:12:03;;;;;;;1.25;1.25;;;;;;;29.78;59.13;99540.25;5111260;28;20198;-66
2023/09/23 08:14:31;;;;;;;1.25;1.20;;;;;;;29.83;57.47;99541.41;5113063;28;20206;-66
2023/09/23 08:16:58;;;;;;;1.63;1.20;;;;;;;29.83;56.75;99538.78;5112845;28;20218;-65
2023/09/23 08:19:25;;;;;;;1.15;1.15;;;;;;;29.80;57.82;99532.97;5112282;28;20230;-66
2023/09/23 08:21:52;;;;;;;1.05;1.05;;;;;;;29.80;56.22;99538.25;5110084;28;20203;-66
2023/09/23 08:24:19;;;;;;;1.20;1.02;;;;;;;29.85;56.63;99531.53;5112121;28;20252;-66
2023/09/23 08:26:46;;;;;;;1.05;1.05;;;;;;;30.08;56.19;99523.75;5109821;27;20207;-66
2023/09/23 08:29:14;;;;;;;6.63;1.20;;;;;;;30.19;57.43;99524.19;5109112;28;20194;-66
2023/09/23 08:31:42;;;;;;;1.63;1.42;;;;;;;30.30;58.61;99519.56;5112314;28;20203;-66
2023/09/23 08:34:10;;;;;;;2.13;1.02;;;;;;;30.43;55.89;99520.72;5111299;28;20748;-66
2023/09/23 08:36:37;;;;;;;1.10;1.10;;;;;;;30.61;55.68;99523.94;5113248;28;20223;-66
2023/09/23 08:39:07;;;;;;;0.90;0.90;;;;;;;30.76;55.15;99507.38;5112715;28;20202;-66
2023/09/23 08:41:35;;;;;;;1.80;0.95;;;;;;;30.95;55.34;99512.22;5112369;28;20202;-65
2023/09/23 08:44:04;;;;;;;1.02;0.95;;;;;;;31.08;52.90;99505.38;5110284;28;20208;-66
2023/09/23 08:46:32;;;;;;;3.05;1.10;;;;;;;31.10;52.52;99508.69;5110481;28;20199;-66
2023/09/23 08:49:03;;;;;;;1.13;1.02;;;;;;;31.24;51.78;99515.06;5112908;28;20697;-66
2023/09/23 08:51:31;;;;;;;1.38;1.00;;;;;;;31.28;50.95;99500.47;5112933;28;20689;-66
2023/09/23 08:53:58;;;;;;;1.65;1.10;;;;;;;31.49;50.10;99503.31;5112724;28;20209;-66
2023/09/23 08:56:24;;;;;;;1.35;1.27;;;;;;;31.43;52.17;99497.88;5112190;28;20199;-66
2023/09/23 08:58:51;;;;;;;1.20;1.20;;;;;;;31.46;50.87;99494.88;5112613;28;20203;-66
2023/09/23 09:01:18;;;;;;;1.20;1.20;;;;;;;31.49;50.81;99494.53;5112524;28;20223;-66
2023/09/23 09:03:47;;;;;;;1.30;1.05;;;;;;;31.32;51.59;99474.44;5112624;28;20202;-66
2023/09/23 09:06:18;;;;;;;1.00;1.00;;;;;;;31.44;51.86;99494.25;5109355;28;20630;-66
2023/09/23 09:08:45;;;;;;;0.93;0.93;;;;;;;31.58;53.27;99489.00;5111183;28;20263;-66
2023/09/23 09:11:12;;;;;;;3.45;1.25;;;;;;;31.62;51.83;99462.97;5110140;28;20252;-66
2023/09/23 09:13:39;;;;;;;1.42;1.02;;;;;;;31.61;50.22;99488.66;5110932;28;20234;-66
2023/09/23 09:16:06;;;;;;;0.90;0.90;;;;;;;31.75;50.69;99487.06;5112386;28;20570;-66
2023/09/23 09:18:33;;;;;;;0.75;0.75;;;;;;;31.93;49.24;99484.88;5112362;28;20250;-66
2023/09/23 09:20:59;;;;;;;1.17;1.08;;;;;;;32.01;49.96;99481.34;5111845;28;20203;-65
2023/09/23 09:23:32;;;;;;;3.60;1.10;;;;;;;32.16;49.37;99485.66;5112157;28;20600;-66
2023/09/23 09:25:59;;;;;;;4.28;1.92;;;;;;;32.23;49.93;99480.47;5110791;28;20199;-66
2023/09/23 09:28:26;;;;;;;1.23;1.13;;;;;;;32.17;49.38;99482.03;5111938;28;20195;-65
2023/09/23 09:30:56;;;;;;;1.15;1.15;;;;;;;32.16;50.14;99468.94;5109282;28;20206;-65
2023/09/23 09:33:27;;;;;;;0.85;0.85;;;;;;;32.23;49.40;99481.28;5112015;28;20734;-66
2023/09/23 09:35:55;;;;;;;3.40;0.93;;;;;;;32.30;49.34;99481.38;5111557;28;20737;-66
2023/09/23 09:38:25;;;;;;;0.75;0.75;;;;;;;32.39;47.99;99474.97;5111343;28;20254;-66
2023/09/23 09:41:02;;;;;;;1.10;1.00;;;;;;;32.44;48.38;99477.09;5111388;28;20203;-66
2023/09/23 09:43:30;;;;;;;2.03;1.80;;;;;;;32.24;48.00;99471.50;5109706;28;20201;-66
2023/09/23 09:45:59;;;;;;;0.90;0.90;;;;;;;32.39;47.75;99479.44;5111016;28;20195;-66
2023/09/23 09:48:30;;;;;;;4.07;1.20;;;;;;;32.41;47.02;99457.03;5109145;28;20593;-66
2023/09/23 09:50:57;;;;;;;2.20;2.10;;;;;;;32.37;47.78;99468.22;5109535;28;20194;-66
2023/09/23 09:53:25;;;;;;;1.10;1.10;;;;;;;32.50;48.28;99455.94;5110516;28;20210;-67
2023/09/23 09:55:56;;;;;;;1.60;1.15;;;;;;;32.48;46.66;99455.28;5111142;28;20194;-67
2023/09/23 09:58:23;;;;;;;0.98;0.98;;;;;;;32.56;47.72;99454.38;5110114;28;20225;-66
2023/09/23 10:00:52;;;;;;;1.42;1.08;;;;;;;32.57;45.57;99462.16;5109192;28;20250;-66
2023/09/23 10:03:27;;;;;;;1.52;1.42;;;;;;;32.62;44.88;99459.78;5110426;28;20199;-67
2023/09/23 10:06:00;;;;;;;1.45;1.30;;;;;;;32.43;46.08;99454.19;5108556;28;20268;-65
2023/09/23 10:08:36;;;;;;;8.60;1.02;;;;;;;32.37;46.00;99445.16;5107887;28;20195;-65
2023/09/23 10:11:05;;;;;;;1.38;1.27;;;;;;;32.39;47.46;99437.81;5107080;28;20674;-66
2023/09/23 10:13:32;;;;;;;4.13;1.70;;;;;;;32.33;44.89;99427.13;5110020;28;20203;-66
2023/09/23 10:16:05;;;;;;;1.55;1.38;;;;;;;32.42;45.86;99432.13;5109112;28;20241;-66
2023/09/23 10:18:36;;;;;;;1.67;1.30;;;;;;;32.57;46.47;99429.50;5110294;28;20249;-66
2023/09/23 10:21:04;;;;;;;1.17;1.08;;;;;;;32.67;45.80;99420.22;5109795;28;21014;-66
2023/09/23 10:23:35;;;;;;;1.30;1.20;;;;;;;32.80;46.02;99413.44;5109470;28;20224;-66
2023/09/23 10:26:13;;;;;;;1.48;1.40;;;;;;;32.85;45.97;99416.34;5111305;28;20195;-66
2023/09/23 10:28:40;;;;;;;1.35;1.30;;;;;;;32.96;46.11;99408.69;5111101;28;20259;-66
2023/09/23 10:31:07;;;;;;;1.10;1.10;;;;;;;33.11;46.90;99406.00;5110694;28;20210;-66
2023/09/23 10:33:36;;;;;;;1.00;1.00;;;;;;;33.11;45.44;99401.50;5109917;28;20226;-66
2023/09/23 10:36:05;;;;;;;1.23;1.23;;;;;;;33.15;45.15;99397.44;5111106;28;20209;-66
2023/09/23 10:38:34;;;;;;;2.58;1.25;;;;;;;33.19;45.22;99406.69;5109850;28;20230;-67
2023/09/23 10:41:04;;;;;;;3.22;1.00;;;;;;;33.16;44.21;99398.28;5109814;28;20194;-66
2023/09/23 10:43:32;;;;;;;1.50;1.40;;;;;;;33.15;44.23;99408.06;5110048;28;20205;-66
2023/09/23 10:46:01;;;;;;;1.48;1.38;;;;;;;33.24;44.58;99404.28;5107809;28;20314;-66
2023/09/23 10:48:28;;;;;;;1.02;1.02;;;;;;;33.17;44.20;99399.91;5110531;28;20243;-66
2023/09/23 10:50:55;;;;;;;1.50;1.40;;;;;;;33.22;45.12;99398.31;5109993;28;20210;-66
2023/09/23 10:53:22;;;;;;;1.50;1.50;;;;;;;33.27;44.92;99389.78;5110140;28;20207;-66
2023/09/23 10:55:50;;;;;;;3.00;1.40;;;;;;;33.38;45.19;99385.81;5110373;28;20226;-66
2023/09/23 10:58:18;;;;;;;0.90;0.90;;;;;;;33.14;45.10;99379.06;5110310;28;20222;-66
2023/09/23 11:00:46;;;;;;;1.60;1.30;;;;;;;33.13;45.04;99378.22;5110171;28;20304;-66
2023/09/23 11:03:17;;;;;;;1.70;1.60;;;;;;;33.24;46.69;99375.06;5110073;28;20579;-66
2023/09/23 11:05:45;;;;;;;1.45;1.42;;;;;;;33.28;44.83;99376.28;5109978;28;20206;-66
2023/09/23 11:08:14;;;;;;;2.05;1.80;;;;;;;33.25;45.83;99371.38;5110402;28;20225;-66
2023/09/23 11:10:41;;;;;;;4.68;1.58;;;;;;;33.28;46.73;99372.03;5110352;28;20220;-65
2023/09/23 11:13:10;;;;;;;3.10;1.80;;;;;;;33.36;46.92;99358.56;5109726;28;20199;-66
2023/09/23 11:15:37;;;;;;;1.60;1.60;;;;;;;33.40;45.26;99357.19;5108055;28;20551;-65
2023/09/23 11:18:10;;;;;;;1.60;1.35;;;;;;;33.46;44.77;99356.41;5109213;28;20217;-65
2023/09/23 11:20:40;;;;;;;1.75;1.65;;;;;;;33.44;45.14;99358.44;5108781;28;20798;-65
2023/09/23 11:23:10;;;;;;;3.53;1.73;;;;;;;33.47;45.48;99342.09;5109018;28;20263;-65
2023/09/23 11:25:37;;;;;;;1.90;1.80;;;;;;;33.54;45.34;99343.78;5108664;28;20203;-65
2023/09/23 11:28:04;;;;;;;1.90;1.80;;;;;;;33.61;45.33;99327.91;5109039;28;20252;-65
2023/09/23 11:30:31;;;;;;;1.38;1.27;;;;;;;33.69;45.02;99330.41;5109767;28;20632;-66
2023/09/23 11:32:58;;;;;;;2.90;1.92;;;;;;;33.73;44.12;99329.00;5109031;28;20678;-65
2023/09/23 11:35:26;;;;;;;2.25;1.70;;;;;;;33.89;44.91;99331.34;5110217;28;20198;-65